Leisenring, PA (15455)

10:44 AM EDT on October 24, 2014 (GMT -0400)
Dunbar | Change Station
CLOSE
Current Station
Personal Weather Station
Location: Dunbar, PA
Elevation: 1056 ft
Nearby Weather Stations

Elev 1056 ft 40.00 °N, 79.69 °W | Updated 45 seconds ago

Mostly Cloudy
Mostly Cloudy
47.7 °F
Feels Like 48 °F
N
2.2
Wind Variable Wind from South
Gusts 3.1 mph

Today
High -- | Low -- °F
--% Chance of Precip.
Yesterday
High -- | Low -- °F
Precip. -- in
7:38 AM 6:26 PM
New Moon, 1% visible
Pressure 30.12 in
Visibility 6.0 miles
Clouds Clear
Windchill 48 °F
Dew Point 47 °F
Humidity 99%
Rainfall 0.00 in
Snow Depth Not available.
UV 2 out of 12
Pollen .70 out of 12
Air Quality Not available.
Flu Activity Sporadic
METAR KAGC 241353Z 17003KT 6SM HZ CLR 07/04 A3009 RMK AO2 SLP199 VIS 4 E T00720039

More Conditions Fewer Conditions

Pressure 30.12 in
Visibility 6.0 miles
Clouds Clear
Windchill 48 °F
Dew Point 47 °F
Humidity 99%
Rainfall 0.00 in
Snow Depth Not available.
UV 2 out of 12
Pollen .70 out of 12
Air Quality Not available.
Flu Activity Sporadic
METAR KAGC 241353Z 17003KT 6SM HZ CLR 07/04 A3009 RMK AO2 SLP199 VIS 4 E T00720039

More Conditions Fewer Conditions

10-Day Weather Forecast

Almanac

Astronomy

Oct. 24, 2014 Rise Set
Actual Time 7:38 AM EDT 6:26 PM EDT
Civil Twilight 7:10 AM EDT 6:53 PM EDT
Nautical Twilight 6:39 AM EDT 7:25 PM EDT
Astronomical Twilight 6:07 AM EDT 7:56 PM EDT
Moon 8:15 AM EDT 7:05 PM EDT
Length of Visible Light 11h 42m
Length of Day
10h 47m
Tomorrow will be 2m 26s shorter.
New Moon, 1% of the Moon is Illuminated
Today
New Moon
Oct 30
First Quarter
Nov 6
Full
Nov 14
Last Quarter
Nov 22
New

Today's Extremes

State Highs State Lows

Community

WunderPhotos

Upload Photos

1,764,581 photos uploaded!

WunderBlogs® & News

Nearby

Snow Depth

Station Depth Elevation
No new snow has been reported.

Earthquake Activity

City Distance Mag. Time & Date
No recent earthquake activity has been reported nearby.
Minimum magnitude displayed is 2.5.

Coastal Water Temperatures

Place Temperature
No Stations Reporting

Nearby Weather Stations